Date,TemperatureHighF,TemperatureAvgF,TemperatureLowF,DewpointHighF,DewpointAvgF,DewpointLowF,HumidityHigh,HumidityAvg,HumidityLow,PressureMaxIn,PressureMinIn,WindSpeedMaxMPH,WindSpeedAvgMPH,GustSpeedMaxMPH,PrecipitationSumIn
2013-5-1,81.4,68.3,50.7,24.4,18.3,7.4,32,16,6,29.99,29.78,10,5,19,0.00
2013-5-2,76.9,65.0,52.2,25.2,20.3,11.9,29,19,12,30.16,29.99,13,7,22,0.00
2013-5-3,73.4,59.5,44.8,21.4,15.9,10.4,36,20,10,30.16,29.93,15,6,21,0.00
2013-5-4,81.1,67.1,48.6,32.5,21.9,15.6,29,19,10,29.92,29.75,11,5,20,0.00
2013-5-5,78.7,67.8,56.8,34.6,27.5,15.4,36,23,10,29.93,29.80,14,8,24,0.00
2013-5-6,76.3,63.2,49.6,40.2,34.8,29.2,61,37,18,29.99,29.87,12,5,20,0.00
2013-5-7,74.5,62.5,51.8,39.1,31.3,23.2,57,33,16,30.01,29.88,13,6,22,0.00
2013-5-8,75.0,61.3,48.6,33.5,28.4,19.6,54,31,13,30.04,29.93,13,6,25,0.00
2013-5-9,74.6,62.7,49.6,38.4,30.5,21.3,61,33,14,30.01,29.90,11,4,18,0.00
2013-5-10,73.2,60.7,48.3,40.5,31.4,25.8,48,34,19,30.13,29.96,10,3,18,0.03
2013-5-11,73.5,62.3,46.7,37.8,34.8,31.6,61,37,24,30.16,30.09,12,5,21,0.00
2013-5-12,76.7,64.9,50.9,37.2,30.9,24.5,55,30,15,30.19,30.03,16,7,27,0.00
2013-5-13,80.2,67.5,53.7,34.8,24.6,12.1,39,22,8,30.13,29.98,16,5,25,0.00
2013-5-14,82.1,68.7,47.3,37.6,31.7,24.9,52,27,14,30.04,29.89,17,4,32,0.00
2013-5-15,86.2,74.2,61.5,33.9,32.1,29.4,33,22,14,29.99,29.82,13,7,23,0.00
2013-5-16,86.7,74.7,63.8,31.8,25.0,14.2,27,17,8,29.91,29.76,10,6,20,0.00
2013-5-17,83.1,72.0,56.4,31.1,23.5,5.0,34,18,5,29.88,29.78,12,5,21,0.00
2013-5-18,81.8,69.5,55.9,32.8,25.8,13.2,40,22,8,29.92,29.81,13,6,25,0.00
2013-5-19,83.7,68.8,46.4,34.1,26.9,14.0,54,24,8,29.91,29.77,12,6,23,0.00
2013-5-20,82.9,70.2,57.8,37.1,28.3,19.3,38,22,12,29.88,29.76,14,6,26,0.00
2013-5-21,85.6,70.5,46.1,23.0,15.9,8.1,32,14,6,29.93,29.78,11,5,20,0.00
2013-5-22,88.3,75.4,56.2,24.4,18.6,12.4,22,12,7,29.81,29.67,10,5,17,0.00
2013-5-23,87.7,74.5,57.1,30.7,19.9,7.1,31,15,5,29.84,29.74,12,5,21,0.00
2013-5-24,87.7,74.0,53.9,41.1,22.9,-0.7,54,20,3,29.90,29.82,10,4,20,0.00
2013-5-25,87.0,74.6,58.4,30.8,21.1,12.7,31,15,7,29.93,29.82,12,5,22,0.00
2013-5-26,87.1,72.9,51.4,30.4,16.7,6.3,30,14,5,29.94,29.85,11,5,21,0.00
2013-5-27,88.8,73.3,52.1,25.8,13.2,-0.3,27,12,3,29.89,29.72,10,4,18,0.00
2013-5-28,85.4,71.8,49.0,29.2,16.9,6.0,31,14,5,29.76,29.60,13,6,23,0.00
2013-5-29,83.7,70.9,56.7,33.3,28.5,24.7,36,22,12,29.77,29.67,13,5,41,0.00
2013-5-30,87.9,74.2,58.2,50.8,36.8,27.7,64,29,12,29.83,29.74,11,5,21,0.00
2013-5-31,90.9,76.2,58.6,51.1,40.7,33.5,68,31,14,29.85,29.73,13,5,22,0.00